Time;durP1;ratioP1;P1;durP2;ratioP2;P2;SDS_P1;SDS_P2;PMS_P1;PMS_P2;Temp;Humidity;BMP_temperature;BMP_pressure;BME280_temperature;BME280_humidity;BME280_pressure;Samples;Min_cycle;Max_cycle;Signal;HPM_P1;HPM_P2
2022/09/21 00:00:03;;;;;;;6.83;3.20;;;;;;;7.25;100.00;101767.81;690071;28;1283;-62
2022/09/21 00:00:25;;;;;;;6.30;3.35;;;;;;;7.25;100.00;101770.41;689989;28;1198;-61
2022/09/21 00:00:46;;;;;;;5.10;3.10;;;;;;;7.24;100.00;101760.81;684045;28;1521;-61
2022/09/21 00:01:08;;;;;;;6.07;3.30;;;;;;;7.29;100.00;101767.03;683772;28;1286;-62
2022/09/21 00:01:30;;;;;;;5.75;3.10;;;;;;;7.31;100.00;101767.94;686583;28;1228;-62
2022/09/21 00:01:50;;;;;;;5.45;3.20;;;;;;;7.28;100.00;101765.28;686329;28;1283;-62
2022/09/21 00:02:12;;;;;;;7.53;2.93;;;;;;;7.21;100.00;101768.56;686343;28;1298;-62
2022/09/21 00:02:32;;;;;;;6.47;3.20;;;;;;;7.34;100.00;101768.06;688079;28;1271;-62
2022/09/21 00:02:57;;;;;;;6.13;3.23;;;;;;;7.40;100.00;101770.81;688476;28;4395;-62
2022/09/21 00:03:18;;;;;;;5.78;3.00;;;;;;;7.41;100.00;101763.91;689239;28;1314;-62
2022/09/21 00:03:40;;;;;;;7.70;3.53;;;;;;;7.43;100.00;101760.47;689342;28;1472;-62
2022/09/21 00:04:02;;;;;;;7.57;3.30;;;;;;;7.47;100.00;101761.44;690119;28;1124;-62
2022/09/21 00:04:23;;;;;;;6.97;3.10;;;;;;;7.49;100.00;101763.25;688667;28;1291;-61
2022/09/21 00:04:43;;;;;;;7.53;2.90;;;;;;;7.42;100.00;101763.94;690545;28;1344;-62
2022/09/21 00:05:05;;;;;;;6.63;2.95;;;;;;;7.42;100.00;101761.34;688553;28;1153;-61
2022/09/21 00:05:25;;;;;;;6.85;3.45;;;;;;;7.41;100.00;101769.09;688280;28;1244;-61
2022/09/21 00:05:46;;;;;;;6.90;3.30;;;;;;;7.35;100.00;101759.38;687535;28;4305;-61
2022/09/21 00:06:10;;;;;;;6.37;3.07;;;;;;;7.30;100.00;101764.47;689676;28;1137;-63
2022/09/21 00:06:33;;;;;;;7.25;3.50;;;;;;;7.29;100.00;101761.84;688069;28;1267;-62
2022/09/21 00:06:53;;;;;;;6.13;3.33;;;;;;;7.24;100.00;101763.44;688231;28;1303;-62
2022/09/21 00:07:13;;;;;;;6.37;3.20;;;;;;;7.21;100.00;101760.75;689210;28;1914;-62
2022/09/21 00:07:34;;;;;;;5.40;3.10;;;;;;;7.19;100.00;101765.06;688847;28;1288;-62
2022/09/21 00:07:54;;;;;;;5.40;3.00;;;;;;;7.19;100.00;101768.53;689063;28;1202;-63
2022/09/21 00:08:15;;;;;;;6.07;3.20;;;;;;;7.16;100.00;101763.25;689148;28;1286;-62
2022/09/21 00:08:35;;;;;;;5.45;3.20;;;;;;;7.15;100.00;101761.47;686347;28;1239;-62
2022/09/21 00:08:56;;;;;;;5.93;3.10;;;;;;;7.09;100.00;101762.19;685539;28;4548;-62
2022/09/21 00:09:16;;;;;;;7.25;3.65;;;;;;;7.05;100.00;101764.66;686892;28;1176;-63
2022/09/21 00:09:37;;;;;;;7.45;3.50;;;;;;;6.99;100.00;101762.75;686029;28;1230;-62
2022/09/21 00:09:57;;;;;;;5.80;3.20;;;;;;;7.00;100.00;101767.13;686565;28;1433;-62
2022/09/21 00:10:20;;;;;;;5.90;3.20;;;;;;;6.99;100.00;101762.75;688136;28;1251;-63
2022/09/21 00:10:40;;;;;;;6.03;3.30;;;;;;;7.04;100.00;101768.09;688343;28;1443;-62
2022/09/21 00:11:02;;;;;;;5.90;3.30;;;;;;;7.04;100.00;101766.38;687924;28;1180;-63
2022/09/21 00:11:28;;;;;;;6.75;3.30;;;;;;;7.06;100.00;101763.81;688314;28;1352;-62
2022/09/21 00:11:48;;;;;;;5.65;3.00;;;;;;;6.99;100.00;101770.56;688689;28;4324;-62
2022/09/21 00:12:09;;;;;;;6.65;3.05;;;;;;;6.96;100.00;101760.97;688454;28;1231;-62
2022/09/21 00:12:30;;;;;;;6.67;3.10;;;;;;;7.06;100.00;101766.41;689873;28;1851;-62
2022/09/21 00:12:50;;;;;;;5.65;3.10;;;;;;;7.12;100.00;101767.47;689848;28;1119;-62
2022/09/21 00:13:11;;;;;;;6.00;3.25;;;;;;;7.12;100.00;101762.28;689596;28;1063;-63
2022/09/21 00:13:33;;;;;;;6.28;3.20;;;;;;;7.07;100.00;101770.78;690298;28;1076;-62
2022/09/21 00:14:04;;;;;;;8.20;3.35;;;;;;;7.06;100.00;101763.81;689048;28;1099;-62
2022/09/21 00:14:24;;;;;;;5.90;3.60;;;;;;;7.06;100.00;101766.41;688584;28;1213;-62
2022/09/21 00:14:44;;;;;;;5.73;3.30;;;;;;;7.05;100.00;101762.94;689197;28;4429;-62
2022/09/21 00:15:07;;;;;;;5.93;3.05;;;;;;;7.10;100.00;101763.06;688092;28;1260;-62
2022/09/21 00:15:28;;;;;;;5.75;3.15;;;;;;;7.17;100.00;101759.78;689169;28;1213;-62
2022/09/21 00:15:49;;;;;;;8.20;3.10;;;;;;;7.16;100.00;101765.84;688936;28;1036;-62
2022/09/21 00:16:09;;;;;;;6.80;3.30;;;;;;;7.14;100.00;101760.59;688407;28;1300;-61
2022/09/21 00:16:30;;;;;;;6.47;3.58;;;;;;;7.15;100.00;101758.88;689394;28;1181;-61
2022/09/21 00:16:51;;;;;;;6.13;3.10;;;;;;;7.14;100.00;101759.72;689046;28;1424;-63
2022/09/21 00:17:11;;;;;;;7.00;3.20;;;;;;;7.10;100.00;101761.38;688293;28;1208;-62
2022/09/21 00:17:32;;;;;;;7.20;3.35;;;;;;;7.10;100.00;101763.97;688895;28;1251;-62
2022/09/21 00:17:53;;;;;;;7.03;3.70;;;;;;;7.14;100.00;101758.00;689474;28;4418;-62
2022/09/21 00:18:14;;;;;;;7.53;3.40;;;;;;;7.15;100.00;101764.06;690118;28;1287;-62
2022/09/21 00:18:35;;;;;;;7.00;3.30;;;;;;;7.08;100.00;101752.63;689985;28;1477;-61
2022/09/21 00:18:55;;;;;;;5.60;3.28;;;;;;;7.07;100.00;101757.78;689842;28;1433;-61
2022/09/21 00:19:16;;;;;;;5.30;3.30;;;;;;;7.09;100.00;101762.19;688902;28;1231;-62
2022/09/21 00:19:36;;;;;;;8.00;3.47;;;;;;;7.09;100.00;101757.00;688648;28;1271;-61
2022/09/21 00:19:57;;;;;;;6.20;3.50;;;;;;;7.10;100.00;101771.75;689419;28;1310;-62
2022/09/21 00:20:18;;;;;;;6.28;3.40;;;;;;;7.11;100.00;101764.84;689541;28;1414;-62
2022/09/21 00:20:44;;;;;;;8.35;3.80;;;;;;;7.09;100.00;101763.88;689314;28;4968;-62
2022/09/21 00:21:09;;;;;;;5.78;3.42;;;;;;;7.01;100.00;101755.91;689135;28;1135;-61
2022/09/21 00:21:30;;;;;;;6.18;3.20;;;;;;;7.05;100.00;101757.75;688252;28;1411;-62
2022/09/21 00:21:53;;;;;;;5.10;3.00;;;;;;;7.03;100.00;101762.00;689179;28;1274;-62
2022/09/21 00:22:14;;;;;;;5.95;3.20;;;;;;;7.04;100.00;101768.97;688312;28;1473;-62
2022/09/21 00:22:34;;;;;;;8.10;3.17;;;;;;;7.06;100.00;101761.22;688657;28;1278;-61
2022/09/21 00:22:55;;;;;;;6.90;3.20;;;;;;;7.04;100.00;101758.56;687930;28;4574;-63
2022/09/21 00:23:16;;;;;;;5.25;3.10;;;;;;;7.02;100.00;101760.28;687990;28;1219;-62
2022/09/21 00:23:37;;;;;;;6.63;3.23;;;;;;;7.01;100.00;101762.84;686665;28;4510;-62
2022/09/21 00:23:58;;;;;;;6.18;3.45;;;;;;;7.00;100.00;101764.53;689196;28;1298;-62
2022/09/21 00:24:18;;;;;;;7.43;3.30;;;;;;;7.03;100.00;101758.53;688507;28;1422;-61
2022/09/21 00:24:39;;;;;;;8.00;3.20;;;;;;;7.07;100.00;101758.66;689426;28;1489;-62
2022/09/21 00:25:02;;;;;;;5.40;3.20;;;;;;;7.05;100.00;101762.03;688403;28;1620;-62
2022/09/21 00:25:22;;;;;;;7.00;3.30;;;;;;;7.00;100.00;101759.34;688008;28;1233;-62
2022/09/21 00:25:43;;;;;;;6.63;3.30;;;;;;;6.98;100.00;101768.81;688043;28;1472;-62
2022/09/21 00:26:12;;;;;;;6.18;3.42;;;;;;;6.97;100.00;101760.13;689282;28;1255;-62
2022/09/21 00:26:33;;;;;;;6.78;3.55;;;;;;;6.98;100.00;101758.44;688292;28;3589;-61
2022/09/21 00:26:53;;;;;;;5.95;3.35;;;;;;;7.01;100.00;101758.50;689575;28;4394;-62
2022/09/21 00:27:13;;;;;;;5.50;3.33;;;;;;;6.99;100.00;101761.06;689598;28;1976;-61
2022/09/21 00:27:34;;;;;;;5.68;3.30;;;;;;;7.04;100.00;101763.78;689973;28;1437;-62
2022/09/21 00:27:54;;;;;;;6.13;3.20;;;;;;;7.09;100.00;101767.41;690025;28;1295;-62
2022/09/21 00:28:15;;;;;;;4.70;3.10;;;;;;;7.12;100.00;101764.88;689664;28;1383;-62
2022/09/21 00:28:36;;;;;;;4.90;3.30;;;;;;;7.13;100.00;101761.44;690068;28;1311;-62
2022/09/21 00:28:59;;;;;;;5.65;3.53;;;;;;;7.15;100.00;101762.34;690081;28;1247;-62
2022/09/21 00:29:19;;;;;;;5.75;3.15;;;;;;;7.19;100.00;101763.31;689505;28;1568;-63
2022/09/21 00:29:39;;;;;;;6.22;3.20;;;;;;;7.22;100.00;101762.53;689607;28;4295;-62
2022/09/21 00:30:05;;;;;;;5.93;3.00;;;;;;;7.15;100.00;101762.34;689804;28;1532;-61
2022/09/21 00:30:26;;;;;;;6.28;3.17;;;;;;;7.13;100.00;101758.84;689838;28;1159;-62
2022/09/21 00:30:50;;;;;;;8.20;3.20;;;;;;;7.15;100.00;101757.16;690088;28;1159;-62
2022/09/21 00:31:14;;;;;;;5.53;3.20;;;;;;;7.19;100.00;101768.53;689404;28;1325;-61
2022/09/21 00:31:34;;;;;;;5.93;3.38;;;;;;;7.21;100.00;101759.03;688382;28;1405;-62
2022/09/21 00:31:55;;;;;;;6.03;3.17;;;;;;;7.22;100.00;101767.72;688765;28;1433;-61
2022/09/21 00:32:15;;;;;;;5.45;2.90;;;;;;;7.24;100.00;101771.22;689091;28;1501;-63
2022/09/21 00:32:38;;;;;;;7.38;3.00;;;;;;;7.28;100.00;101762.66;689004;28;4546;-62
2022/09/21 00:32:58;;;;;;;6.57;2.97;;;;;;;7.31;100.00;101761.03;688604;28;1415;-62
2022/09/21 00:33:19;;;;;;;6.30;3.20;;;;;;;7.27;100.00;101760.91;688685;28;1461;-62
2022/09/21 00:33:40;;;;;;;5.22;3.05;;;;;;;7.27;100.00;101761.81;689959;28;1254;-62
2022/09/21 00:34:02;;;;;;;6.93;3.00;;;;;;;7.26;100.00;101759.16;688984;28;1330;-61
2022/09/21 00:34:23;;;;;;;6.30;3.47;;;;;;;7.20;100.00;101766.78;690158;28;1094;-62
2022/09/21 00:34:44;;;;;;;6.38;3.30;;;;;;;7.13;100.00;101761.44;687853;28;1119;-62
2022/09/21 00:35:06;;;;;;;6.47;3.30;;;;;;;7.11;100.00;101764.84;688289;28;1083;-62
2022/09/21 00:35:26;;;;;;;6.50;3.20;;;;;;;7.10;100.00;101766.56;687936;28;1073;-61
2022/09/21 00:35:47;;;;;;;7.00;3.20;;;;;;;7.10;100.00;101766.56;685435;28;4308;-62
2022/09/21 00:36:10;;;;;;;7.43;3.23;;;;;;;7.11;100.00;101768.31;686147;28;1236;-62
2022/09/21 00:36:30;;;;;;;5.80;3.13;;;;;;;7.13;100.00;101770.94;687571;28;1247;-62
2022/09/21 00:36:51;;;;;;;6.03;3.23;;;;;;;7.10;100.00;101768.25;689323;28;1076;-62
2022/09/21 00:37:11;;;;;;;5.60;3.10;;;;;;;7.09;100.00;101770.00;689736;28;1061;-62
2022/09/21 00:37:33;;;;;;;5.50;3.15;;;;;;;7.06;100.00;101767.31;690570;28;1262;-62
2022/09/21 00:37:53;;;;;;;7.60;3.30;;;;;;;7.06;100.00;101772.53;688714;28;1405;-62
2022/09/21 00:38:14;;;;;;;9.60;3.50;;;;;;;7.06;100.00;101763.81;688738;28;1310;-62
2022/09/21 00:38:35;;;;;;;6.55;3.50;;;;;;;7.04;100.00;101768.97;688290;28;1363;-62
2022/09/21 00:38:59;;;;;;;7.32;3.38;;;;;;;7.06;100.00;101769.00;688579;28;4661;-62
2022/09/21 00:39:20;;;;;;;7.90;3.20;;;;;;;7.06;100.00;101771.63;687211;28;1596;-63
2022/09/21 00:39:40;;;;;;;6.27;3.20;;;;;;;7.03;100.00;101769.81;687532;28;1017;-62
2022/09/21 00:40:02;;;;;;;6.85;3.30;;;;;;;6.97;100.00;101767.94;687683;28;1081;-62
2022/09/21 00:40:22;;;;;;;6.22;3.38;;;;;;;7.03;100.00;101767.22;689661;28;1080;-62
2022/09/21 00:40:42;;;;;;;5.60;3.10;;;;;;;7.07;100.00;101771.66;689836;28;1475;-61
2022/09/21 00:41:05;;;;;;;5.90;3.23;;;;;;;7.08;100.00;101769.97;689988;28;1147;-61
2022/09/21 00:41:27;;;;;;;7.50;3.38;;;;;;;7.09;100.00;101774.28;688278;28;1175;-63
2022/09/21 00:41:52;;;;;;;5.85;3.30;;;;;;;7.06;100.00;101766.41;688829;28;4726;-61
2022/09/21 00:42:20;;;;;;;7.72;3.40;;;;;;;7.01;100.00;101774.09;688100;28;1259;-63
2022/09/21 00:42:41;;;;;;;7.63;3.30;;;;;;;7.03;100.00;101767.22;686554;28;1217;-61
2022/09/21 00:43:13;;;;;;;7.57;3.30;;;;;;;6.99;100.00;101771.47;687005;28;1315;-62
2022/09/21 00:43:36;;;;;;;5.82;3.05;;;;;;;7.01;100.00;101763.69;687004;28;1244;-61
2022/09/21 00:44:21;;;;;;;5.53;3.20;;;;;;;7.07;100.00;101774.25;689039;28;1330;-62
2022/09/21 00:44:41;;;;;;;5.40;3.10;;;;;;;7.03;100.00;101776.75;689009;28;4485;-62
2022/09/21 00:45:02;;;;;;;6.00;3.13;;;;;;;7.00;100.00;101767.13;689646;28;1151;-63
2022/09/21 00:45:23;;;;;;;7.78;3.38;;;;;;;6.96;100.00;101766.19;689327;28;1147;-62
2022/09/21 00:45:47;;;;;;;6.83;3.40;;;;;;;6.94;100.00;101775.66;688262;28;1236;-62
2022/09/21 00:46:15;;;;;;;6.25;3.38;;;;;;;6.92;100.00;101774.75;688097;28;1340;-62
2022/09/21 00:46:37;;;;;;;8.27;3.50;;;;;;;6.89;100.00;101769.44;687433;28;1287;-62
2022/09/21 00:47:05;;;;;;;7.93;3.42;;;;;;;6.89;100.00;101771.16;689139;28;1413;-62
2022/09/21 00:47:35;;;;;;;7.03;3.25;;;;;;;6.87;100.00;101776.31;689723;28;1899;-61
2022/09/21 00:48:02;;;;;;;6.35;3.33;;;;;;;6.93;100.00;101778.19;688928;28;4891;-61
2022/09/21 00:48:22;;;;;;;5.70;3.20;;;;;;;6.97;100.00;101775.72;689239;28;1254;-64
2022/09/21 00:48:45;;;;;;;5.43;3.30;;;;;;;7.01;100.00;101768.03;689432;28;1077;-62
2022/09/21 00:49:06;;;;;;;5.28;3.03;;;;;;;7.00;100.00;101777.53;689734;28;1217;-62
2022/09/21 00:49:28;;;;;;;6.13;3.13;;;;;;;6.95;100.00;101772.22;689800;28;1104;-62
2022/09/21 00:49:53;;;;;;;6.38;3.20;;;;;;;6.89;100.00;101773.75;690118;28;1294;-61
2022/09/21 00:50:18;;;;;;;6.68;3.40;;;;;;;6.87;100.00;101775.41;689935;28;1096;-62
2022/09/21 00:50:45;;;;;;;6.07;3.15;;;;;;;6.90;100.00;101781.59;688530;28;4653;-62
2022/09/21 00:51:07;;;;;;;5.35;3.15;;;;;;;6.87;100.00;101780.63;689687;28;1080;-62
2022/09/21 00:51:28;;;;;;;5.88;3.08;;;;;;;6.79;100.00;101778.69;688591;28;1487;-62
2022/09/21 00:51:50;;;;;;;5.53;3.08;;;;;;;6.78;100.00;101776.94;689078;28;1286;-62
2022/09/21 00:52:15;;;;;;;5.60;3.20;;;;;;;6.81;100.00;101782.22;689111;28;1390;-62
2022/09/21 00:52:40;;;;;;;6.90;3.60;;;;;;;6.84;100.00;101775.34;688621;28;1251;-61
2022/09/21 00:53:03;;;;;;;6.68;3.28;;;;;;;6.77;100.00;101782.97;689074;28;1782;-62
2022/09/21 00:53:24;;;;;;;6.10;3.50;;;;;;;6.75;100.00;101782.03;689177;28;1142;-62
2022/09/21 00:53:46;;;;;;;6.53;3.20;;;;;;;6.71;100.00;101781.91;688317;28;4573;-62
2022/09/21 00:54:13;;;;;;;6.00;3.10;;;;;;;6.80;100.00;101777.00;689947;28;1148;-62
2022/09/21 00:55:02;;;;;;;7.07;3.40;;;;;;;6.90;100.00;101775.53;690445;28;1205;-62
2022/09/21 00:55:31;;;;;;;7.30;3.38;;;;;;;6.92;100.00;101785.13;689933;28;1124;-62
2022/09/21 00:55:54;;;;;;;7.43;3.28;;;;;;;6.98;100.00;101779.22;690676;28;1379;-62
2022/09/21 00:56:15;;;;;;;7.95;3.30;;;;;;;7.02;100.00;101786.28;690165;28;1266;-62
2022/09/21 00:56:36;;;;;;;8.07;3.47;;;;;;;6.96;100.00;101784.38;688389;28;1362;-62
2022/09/21 00:57:01;;;;;;;7.22;3.50;;;;;;;6.90;100.00;101776.41;688123;28;4809;-62
2022/09/21 00:57:25;;;;;;;6.75;3.10;;;;;;;6.85;100.00;101782.31;689329;28;1319;-62
2022/09/21 00:57:50;;;;;;;7.00;3.13;;;;;;;6.78;100.00;101781.25;690475;28;1223;-62
2022/09/21 00:58:15;;;;;;;8.02;3.30;;;;;;;6.75;100.00;101779.44;690092;28;1330;-62
2022/09/21 00:58:43;;;;;;;5.93;3.20;;;;;;;6.70;100.00;101782.72;689716;28;1247;-62
2022/09/21 00:59:04;;;;;;;6.10;3.47;;;;;;;6.65;100.00;101783.47;690127;28;1224;-62
2022/09/21 00:59:24;;;;;;;8.52;3.70;;;;;;;6.64;100.00;101783.44;690264;28;1206;-62
2022/09/21 00:59:47;;;;;;;6.50;3.30;;;;;;;6.70;100.00;101788.84;688630;28;4274;-63
2022/09/21 01:00:09;;;;;;;5.72;3.05;;;;;;;6.69;100.00;101786.16;686749;28;1296;-62
2022/09/21 01:00:29;;;;;;;6.90;3.45;;;;;;;6.68;100.00;101779.22;686482;28;1414;-62
2022/09/21 01:00:51;;;;;;;7.03;3.35;;;;;;;6.63;100.00;101785.16;687839;28;1357;-62
2022/09/21 01:01:15;;;;;;;5.53;2.92;;;;;;;6.70;100.00;101787.94;686481;28;1357;-62
2022/09/21 01:01:37;;;;;;;5.07;3.08;;;;;;;6.69;100.00;101787.06;685872;28;2020;-62
2022/09/21 01:01:58;;;;;;;7.72;3.33;;;;;;;6.67;100.00;101785.25;688721;28;1450;-62
2022/09/21 01:02:22;;;;;;;7.22;3.25;;;;;;;6.68;100.00;101782.69;689196;28;1433;-62
2022/09/21 01:02:44;;;;;;;7.32;3.08;;;;;;;6.65;100.00;101787.81;686847;28;4422;-62
2022/09/21 01:03:05;;;;;;;6.60;3.08;;;;;;;6.64;100.00;101784.31;687219;28;1160;-63
2022/09/21 01:03:28;;;;;;;6.93;2.95;;;;;;;6.68;100.00;101785.28;689669;28;1072;-62
2022/09/21 01:03:50;;;;;;;6.68;3.28;;;;;;;6.74;100.00;101785.50;690312;28;1535;-63
2022/09/21 01:04:12;;;;;;;6.97;3.20;;;;;;;6.77;100.00;101790.78;690439;28;1353;-61
2022/09/21 01:04:33;;;;;;;7.05;3.22;;;;;;;6.77;100.00;101785.56;690185;28;1275;-61
2022/09/21 01:04:54;;;;;;;6.67;3.13;;;;;;;6.75;100.00;101786.34;689875;28;1255;-62
2022/09/21 01:05:14;;;;;;;5.18;3.17;;;;;;;6.76;100.00;101777.75;689064;28;1139;-61
2022/09/21 01:05:35;;;;;;;5.77;3.10;;;;;;;6.75;100.00;101783.75;689731;28;1517;-62
2022/09/21 01:05:55;;;;;;;7.82;3.20;;;;;;;6.70;100.00;101785.34;688372;28;4304;-63
2022/09/21 01:06:18;;;;;;;6.87;3.27;;;;;;;6.63;100.00;101787.78;689639;28;1757;-61
2022/09/21 01:06:39;;;;;;;6.95;3.20;;;;;;;6.63;100.00;101786.88;688337;28;1398;-62
2022/09/21 01:07:04;;;;;;;6.78;3.40;;;;;;;6.64;100.00;101786.03;689117;28;1576;-61
2022/09/21 01:07:28;;;;;;;5.85;3.00;;;;;;;6.60;100.00;101789.38;689306;28;1927;-61
2022/09/21 01:07:48;;;;;;;5.95;3.25;;;;;;;6.59;100.00;101787.63;690245;28;1302;-61
2022/09/21 01:08:11;;;;;;;6.30;3.40;;;;;;;6.59;100.00;101790.22;689550;28;1392;-62
2022/09/21 01:08:33;;;;;;;5.63;3.47;;;;;;;6.58;100.00;101783.28;690508;28;1298;-62
2022/09/21 01:08:57;;;;;;;5.30;3.50;;;;;;;6.58;100.00;101793.66;688712;28;4382;-63
2022/09/21 01:09:18;;;;;;;10.55;3.42;;;;;;;6.53;100.00;101784.84;690095;28;1290;-62
2022/09/21 01:09:41;;;;;;;10.93;3.40;;;;;;;6.47;100.00;101789.00;688978;28;1361;-62
2022/09/21 01:10:08;;;;;;;5.60;3.35;;;;;;;6.43;100.00;101791.47;688623;28;1230;-62
2022/09/21 01:10:45;;;;;;;6.53;3.10;;;;;;;6.39;100.00;101787.91;689034;28;1034;-62
2022/09/21 01:11:24;;;;;;;5.20;3.00;;;;;;;6.40;100.00;101788.81;689311;28;1449;-62
2022/09/21 01:12:09;;;;;;;6.40;3.40;;;;;;;6.43;100.00;101788.88;691362;28;4526;-62
2022/09/21 01:12:51;;;;;;;5.68;3.08;;;;;;;6.54;100.00;101787.50;691587;28;1311;-62
2022/09/21 01:13:32;;;;;;;5.85;3.30;;;;;;;6.61;100.00;101793.75;688678;28;1285;-62
2022/09/21 01:14:26;;;;;;;7.75;3.10;;;;;;;6.64;100.00;101784.31;690254;28;1409;-62
2022/09/21 01:14:57;;;;;;;5.95;3.33;;;;;;;6.69;100.00;101792.25;684930;28;4578;-62
2022/09/21 01:15:21;;;;;;;6.55;3.15;;;;;;;6.71;100.00;101789.72;687331;28;1192;-62
2022/09/21 01:15:53;;;;;;;4.97;3.00;;;;;;;6.63;100.00;101794.66;683841;28;1369;-61
2022/09/21 01:16:27;;;;;;;6.13;3.28;;;;;;;6.53;100.00;101793.50;679492;29;1392;-62
2022/09/21 01:16:55;;;;;;;6.63;3.10;;;;;;;6.45;100.00;101788.09;682025;29;1307;-62
2022/09/21 01:17:52;;;;;;;5.80;3.20;;;;;;;6.40;100.00;101791.41;678872;29;1257;-61
2022/09/21 01:18:46;;;;;;;5.88;3.10;;;;;;;6.43;100.00;101787.16;685953;28;4752;-63
2022/09/21 01:19:45;;;;;;;6.05;3.30;;;;;;;6.59;100.00;101790.22;687689;28;1205;-62
2022/09/21 01:20:33;;;;;;;7.78;3.33;;;;;;;6.70;100.00;101788.84;686498;28;1478;-61
2022/09/21 01:21:17;;;;;;;5.78;3.17;;;;;;;6.72;100.00;101781.94;689837;28;5242;-63
2022/09/21 01:22:01;;;;;;;6.93;3.40;;;;;;;6.74;100.00;101785.50;690296;28;1262;-62
2022/09/21 01:22:30;;;;;;;5.60;2.90;;;;;;;6.67;100.00;101788.72;689357;28;1307;-62
2022/09/21 01:22:50;;;;;;;7.65;3.42;;;;;;;6.72;100.00;101787.16;689090;28;4287;-62
2022/09/21 01:23:33;;;;;;;6.33;3.40;;;;;;;6.69;100.00;101787.06;688404;28;1201;-62
2022/09/21 01:24:13;;;;;;;8.65;3.33;;;;;;;6.81;100.00;101787.44;688243;28;4466;-62
2022/09/21 01:24:50;;;;;;;6.50;3.30;;;;;;;6.91;100.00;101788.56;689899;28;1111;-62
2022/09/21 01:25:32;;;;;;;5.95;3.20;;;;;;;6.76;100.00;101794.19;689437;28;1226;-62
2022/09/21 01:26:07;;;;;;;5.68;3.10;;;;;;;6.64;100.00;101789.50;691156;28;2067;-62
2022/09/21 01:26:47;;;;;;;5.60;3.28;;;;;;;6.59;100.00;101795.41;689963;28;1262;-63
2022/09/21 01:27:23;;;;;;;6.68;3.03;;;;;;;6.41;100.00;101787.94;688937;28;5086;-62
2022/09/21 01:28:11;;;;;;;6.60;3.28;;;;;;;6.23;100.00;101788.25;689628;28;1174;-62
2022/09/21 01:28:40;;;;;;;5.60;3.05;;;;;;;6.16;100.00;101794.09;689437;28;1017;-62
2022/09/21 01:29:22;;;;;;;5.32;3.17;;;;;;;6.10;100.00;101793.06;689327;28;1914;-61
2022/09/21 01:29:49;;;;;;;5.45;3.00;;;;;;;6.02;100.00;101791.94;688120;28;4559;-62
2022/09/21 01:30:14;;;;;;;5.03;3.13;;;;;;;5.99;100.00;101793.56;689566;28;1525;-62
2022/09/21 01:30:37;;;;;;;6.05;3.30;;;;;;;5.99;100.00;101794.44;689708;28;1166;-62
2022/09/21 01:31:04;;;;;;;7.15;3.30;;;;;;;6.01;100.00;101792.78;689082;28;1619;-62
2022/09/21 01:31:32;;;;;;;6.32;3.42;;;;;;;6.10;100.00;101795.66;690305;28;1130;-62
2022/09/21 01:32:05;;;;;;;8.35;3.20;;;;;;;6.23;100.00;101796.94;690207;28;1434;-62
2022/09/21 01:32:40;;;;;;;10.80;3.80;;;;;;;6.36;100.00;101793.00;689064;28;1220;-62
2022/09/21 01:33:08;;;;;;;6.43;3.15;;;;;;;6.42;100.00;101800.09;688345;28;4711;-63
2022/09/21 01:33:36;;;;;;;6.30;3.28;;;;;;;6.44;100.00;101796.72;689571;28;1223;-62
2022/09/21 01:34:06;;;;;;;6.03;3.47;;;;;;;6.50;100.00;101792.56;689623;28;1491;-62
2022/09/21 01:34:37;;;;;;;7.45;3.10;;;;;;;6.50;100.00;101798.63;689331;28;1219;-62
2022/09/21 01:35:07;;;;;;;6.60;3.17;;;;;;;6.50;100.00;101798.63;688834;28;1246;-62
2022/09/21 01:35:34;;;;;;;6.85;3.33;;;;;;;6.49;100.00;101794.25;688973;28;1363;-62
2022/09/21 01:36:08;;;;;;;6.10;3.67;;;;;;;6.48;100.00;101793.38;689124;28;4728;-62
2022/09/21 01:36:30;;;;;;;6.43;3.30;;;;;;;6.51;100.00;101796.91;688434;28;1434;-62
2022/09/21 01:36:54;;;;;;;6.13;3.22;;;;;;;6.54;100.00;101804.81;689142;28;1329;-62
2022/09/21 01:37:22;;;;;;;5.95;3.38;;;;;;;6.51;100.00;101796.91;689859;28;1460;-61
2022/09/21 01:37:57;;;;;;;6.30;3.70;;;;;;;6.43;100.00;101797.56;688064;28;1206;-64
2022/09/21 01:38:27;;;;;;;6.65;3.45;;;;;;;6.35;100.00;101801.63;689350;28;1505;-62
2022/09/21 01:38:51;;;;;;;6.07;3.40;;;;;;;6.30;100.00;101795.44;688212;28;4415;-62
2022/09/21 01:39:13;;;;;;;6.22;3.33;;;;;;;6.27;100.00;101792.72;689529;28;1220;-62
2022/09/21 01:39:35;;;;;;;6.45;3.17;;;;;;;6.26;100.00;101803.97;691442;28;1136;-63
2022/09/21 01:40:00;;;;;;;5.90;3.10;;;;;;;6.22;100.00;101799.50;692533;28;1478;-62
2022/09/21 01:40:27;;;;;;;6.30;3.08;;;;;;;6.24;100.00;101798.69;689599;28;1081;-63
2022/09/21 01:40:52;;;;;;;6.70;3.20;;;;;;;6.22;100.00;101797.78;690426;28;1100;-62
2022/09/21 01:41:17;;;;;;;6.70;3.08;;;;;;;6.24;100.00;101803.00;689734;28;1604;-62
2022/09/21 01:41:41;;;;;;;7.75;3.10;;;;;;;6.24;100.00;101798.69;689986;28;4391;-62
2022/09/21 01:42:03;;;;;;;8.15;3.10;;;;;;;6.27;100.00;101795.31;690390;28;1072;-63
2022/09/21 01:42:27;;;;;;;5.82;3.10;;;;;;;6.40;100.00;101792.28;690302;28;1059;-62
2022/09/21 01:42:49;;;;;;;6.05;3.20;;;;;;;6.42;100.00;101798.38;689442;28;1145;-63
2022/09/21 01:43:15;;;;;;;5.85;3.10;;;;;;;6.45;100.00;101798.50;689725;28;1156;-62
2022/09/21 01:43:39;;;;;;;5.57;3.10;;;;;;;6.46;100.00;101792.44;690612;28;1258;-62
2022/09/21 01:44:12;;;;;;;5.25;3.20;;;;;;;6.48;100.00;101797.72;687853;28;1343;-62
2022/09/21 01:44:36;;;;;;;5.78;2.97;;;;;;;6.53;100.00;101796.09;687100;28;1295;-62
2022/09/21 01:45:02;;;;;;;6.90;3.30;;;;;;;6.55;100.00;101798.75;688144;28;4947;-62
2022/09/21 01:45:29;;;;;;;7.00;3.17;;;;;;;6.52;100.00;101798.66;690059;28;1192;-62
2022/09/21 01:45:53;;;;;;;6.50;3.10;;;;;;;6.42;100.00;101792.31;691557;28;1479;-62
2022/09/21 01:46:19;;;;;;;6.72;3.05;;;;;;;6.37;100.00;101796.47;691948;28;1359;-62
2022/09/21 01:46:40;;;;;;;7.22;3.20;;;;;;;6.34;100.00;101794.69;691112;28;1394;-61
2022/09/21 01:47:02;;;;;;;6.55;2.92;;;;;;;6.34;100.00;101792.09;689601;28;1144;-62
2022/09/21 01:47:24;;;;;;;6.85;3.20;;;;;;;6.37;100.00;101799.06;689277;28;1969;-63
2022/09/21 01:47:47;;;;;;;6.10;3.17;;;;;;;6.41;100.00;101801.84;684757;28;4375;-63
2022/09/21 01:48:08;;;;;;;5.38;2.90;;;;;;;6.43;100.00;101794.09;681874;28;1166;-62
2022/09/21 01:48:34;;;;;;;5.38;3.00;;;;;;;6.41;100.00;101796.63;679465;29;1403;-62
2022/09/21 01:48:59;;;;;;;5.50;3.05;;;;;;;6.38;100.00;101799.13;682330;28;1228;-63
2022/09/21 01:49:25;;;;;;;5.95;2.92;;;;;;;6.33;100.00;101794.63;682578;28;1134;-62
2022/09/21 01:49:53;;;;;;;5.63;2.97;;;;;;;6.28;100.00;101794.50;687736;28;1251;-62
2022/09/21 01:50:16;;;;;;;5.38;2.80;;;;;;;6.21;100.00;101795.13;689391;28;1368;-62
2022/09/21 01:50:43;;;;;;;6.30;3.13;;;;;;;6.19;100.00;101796.78;688832;28;4483;-62
2022/09/21 01:51:08;;;;;;;5.57;3.00;;;;;;;6.18;100.00;101795.91;689628;28;1340;-62
2022/09/21 01:51:32;;;;;;;5.03;3.00;;;;;;;6.16;100.00;101802.75;690056;28;1268;-62
2022/09/21 01:51:58;;;;;;;5.72;3.28;;;;;;;6.19;100.00;101799.38;689527;28;1191;-62
2022/09/21 01:52:30;;;;;;;6.63;3.20;;;;;;;6.16;100.00;101797.56;690396;28;1132;-62
2022/09/21 01:53:01;;;;;;;8.15;3.22;;;;;;;6.08;100.00;101799.94;689917;28;1191;-61
2022/09/21 01:53:30;;;;;;;6.95;3.25;;;;;;;5.98;100.00;101792.66;689169;28;1310;-62
2022/09/21 01:53:55;;;;;;;6.40;3.15;;;;;;;5.96;100.00;101799.50;688974;28;4357;-62
2022/09/21 01:54:35;;;;;;;6.22;3.03;;;;;;;6.09;100.00;101799.13;689296;28;2257;-63
2022/09/21 01:55:06;;;;;;;5.75;3.10;;;;;;;6.16;100.00;101797.56;690446;28;1000;-63
2022/09/21 01:55:32;;;;;;;5.72;3.03;;;;;;;6.16;100.00;101800.16;690560;28;1413;-62
2022/09/21 01:55:57;;;;;;;5.80;3.00;;;;;;;6.17;100.00;101801.06;690618;28;1113;-62
2022/09/21 01:56:26;;;;;;;7.07;3.28;;;;;;;6.17;100.00;101799.34;689076;28;1121;-63
2022/09/21 01:56:57;;;;;;;6.22;3.30;;;;;;;6.13;100.00;101790.59;691133;28;4406;-62
2022/09/21 01:57:36;;;;;;;6.85;3.10;;;;;;;6.02;100.00;101802.31;687920;28;1184;-62
2022/09/21 01:58:23;;;;;;;5.53;2.90;;;;;;;5.87;100.00;101797.50;690066;28;1408;-62
2022/09/21 01:59:05;;;;;;;6.18;3.00;;;;;;;5.89;100.00;101797.56;689302;28;1275;-62
2022/09/21 01:59:36;;;;;;;7.18;3.40;;;;;;;5.93;100.00;101796.81;689514;28;1135;-62
2022/09/21 01:59:59;;;;;;;5.63;3.22;;;;;;;5.89;100.00;101800.16;689233;28;4863;-61
2022/09/21 02:00:19;;;;;;;6.22;3.38;;;;;;;5.88;100.00;101795.78;689646;28;1231;-61